METAR : OOMS 261650Z 08010KT CAVOK 23/13 Q1019 NOSIG